Etusivu
METAR-TAF:

METAR-TAF

Lentoasemat :

Öljynporauslautta

Hoorn-a, Alankomaat

Leveyspiiri: 52-55-05N, Pituuspiiri: 4-09-01E, korkeus merenpinnasta: 41 m

Tämänhetkinen sää

Tämä raportti tehtiin 38 minuuttia sitten, kello 02.55 UTC
Tuuli 4 kn etelästä/lounaasta
Lämpötila 6°C
Kosteus 70%
Ilmanpaine 1024 hPa
Näkyvyys 10 km tai enemmän

METAR: EHQE 190255Z AUTO 20004KT 9999 NSC 06/01 Q1024 W///H///

Aika: 04:33 (03:33 UTC)


TAF: puuttuu

Säähavainnot ja -ennusteet yli 4000 lentoasemalta (METAR- ja TAF-raportit).

Käytössä olevat sääasemat on merkitty karttaan keltaisilla ja punaisilla pisteillä.

Aseta hiiri pisteen päälle nähdäksesi sääaseman nimen.

Klikkaa sitten nähdäksesi säähavainnot ja -ennusteet.

Kartan vaihtaminen: klikkaa mustalla rastilla varustettuja vihreitä pisteitä, niin voit zoomata sisään; viivalla varustettua vihreää pistettä, niin voit zoomata ulos tai vihreitä nuolia, niin pääset viereisille kartoille.


METAR-TAF: